• Join FlightAware (Why Join?)
  • Login
  • US Flag 
06:05AM EDT


 

Airport Tracker/Info


-or-


 

Live Flight TrackerFlight Track Log ✈ UAL4274 ✈ 12-Apr-2013 ✈ KRIC - KCLE

Flight Track Log - Related Links

Times and Time Zones

All times are in EDT time to prevent confusion due to time zone crossing. See the UAL4274 flight status page for this flight to view local times or setup timezone preferences in your user account.

Time Position Orientation Groundspeed Altitude Reporting Facility
EDT Latitude Longitude Course Direction KTS MPH feet Rate Location/Type
07:33AM 37.4706 -77.3031 307° West 170 196 1,800  Level Washington Center
07:34AM 37.4992 -77.3508 307° West 181 208 5,000 2,700 Climbing Washington Center
07:35AM 37.5656 -77.3761 343° North 205 236 7,200 1,980 Climbing Washington Center
07:36AM 37.6317 -77.4117 337° Northwest 227 261 9,000 1,380 Climbing Washington Center
07:37AM 37.6744 -77.4861 306° West 242 278 10,000 1,560 Climbing Washington Center
07:38AM 37.8089 -77.8147 307° West  Level FlightAware Approximate
07:38AM 37.7147 -77.5711 301° West 266 306 12,200  Level Washington Center
07:39AM 37.7592 -77.6564 303° West 283 326 14,400 2,040 Climbing Washington Center
07:40AM 37.8036 -77.7392 304° West 283 326 16,300 1,740 Climbing Washington Center
07:41AM 37.8500 -77.8297 303° West 288 331 17,900 1,620 Climbing Washington Center
07:42AM 37.8983 -77.9258 303° West 309 356 19,600 1,560 Climbing Washington Center
07:43AM 37.9483 -78.0275 302° West 324 373 21,100 1,500 Climbing Washington Center
07:44AM 38.0047 -78.1269 306° West 336 387 22,600 1,500 Climbing Washington Center
07:45AM 38.1103 -78.1622 345° North 349 402 24,100 1,500 Climbing Washington Center
07:46AM 38.2247 -78.1686 357° North 364 419 25,700 1,440 Climbing Washington Center
07:47AM 38.3372 -78.1753 357° North 387 445 27,000 600 Climbing Washington Center
07:48AM 38.4539 -78.1819 357° North 400 460 27,000  Level Washington Center
07:49AM 38.5767 -78.1917 356° North 421 484 27,000  Level Washington Center
07:50AM 38.7100 -78.1989 358° North 449 517 27,000  Level Washington Center
07:51AM 38.8453 -78.2064 358° North 466 536 27,000  Level Washington Center
07:52AM 38.9847 -78.2219 355° North 491 565 27,000  Level Washington Center
07:53AM 39.1283 -78.2353 356° North 503 579 27,000 360 Level Washington Center
07:54AM 39.3869 -78.2625 355° North 528 608 28,200 840 Climbing Cleveland Center
07:55AM 39.5267 -78.2767 356° North 515 593 29,600 1,320 Climbing Cleveland Center
07:56AM 39.6583 -78.2911 355° North 491 565 30,900 660 Climbing Cleveland Center
07:57AM 39.7919 -78.3028 356° North 484 557 31,000  Climbing Cleveland Center
07:58AM 39.9183 -78.3689 338° Northwest 484 557 31,000  Level Cleveland Center
07:59AM 40.0044 -78.5017 310° West 463 533 31,000  Level Cleveland Center
08:00AM 40.0858 -78.6347 309° West 462 532 31,000  Level Cleveland Center
08:01AM 40.1694 -78.7681 309° West 470 541 31,000  Level Cleveland Center
08:02AM 40.2508 -78.9019 309° West 470 541 31,000 -480 Level Cleveland Center
08:03AM 40.3381 -79.0358 311° West 480 552 30,100 -540 Descending Cleveland Center
08:04AM 40.4233 -79.1758 309° West 486 559 30,000 -60 Descending Cleveland Center
08:05AM 40.5167 -79.3239 310° West 486 559 30,000  Level Cleveland Center
08:06AM 40.5953 -79.4483 310° West 486 559 30,000  Level Cleveland Center
08:07AM 40.6778 -79.5867 308° West 486 559 30,000  Level Cleveland Center
08:08AM 40.7644 -79.7222 310° West 486 559 30,000 -300 Level Cleveland Center
08:09AM 40.8425 -79.8586 307° West 481 554 29,400 -840 Descending Cleveland Center
08:10AM 40.9225 -79.9869 310° West 470 541 28,400 -1,020 Descending Cleveland Center
08:11AM 40.9981 -80.1128 309° West 456 525 27,400 -960 Descending Cleveland Center
08:12AM 41.0694 -80.2333 308° West 435 501 26,500 -960 Descending Cleveland Center
08:13AM 41.1447 -80.3625 308° West 435 501 25,500 -1,020 Descending Cleveland Center
08:14AM 41.2219 -80.4919 308° West 446 513 24,500 -960 Descending Cleveland Center
08:15AM 41.2992 -80.6219 308° West 451 519 23,600 -1,020 Descending Cleveland Center
08:16AM 41.3636 -80.7631 301° West 443 510 22,500 -1,620 Descending Cleveland Center
08:17AM 41.3864 -80.8267 296° West 429 494 21,400 -2,700 Descending Cleveland Center
08:17AM 41.4156 -80.8989 298° West 430 495 19,800 -3,000 Descending Cleveland Center
08:18AM 41.4650 -81.0292 297° West 399 459 16,500 -3,180 Descending Cleveland Center
08:19AM 41.5061 -81.1569 293° West 383 441 13,500 -3,000 Descending Cleveland Center
08:20AM 41.5242 -81.2792 281° West 349 402 10,500 -1,860 Descending Cleveland Center
08:21AM 41.5422 -81.3906 282° West 319 367 9,800 -1,200 Descending Cleveland Center
08:22AM 41.5519 -81.4850 278° West 277 319 8,100 -1,800 Descending Cleveland Center
08:23AM 41.5511 -81.5819 269° West 257 296 6,300 -1,800 Descending Cleveland Center
08:24AM 41.5317 -81.6650 253° West 238 274 4,500 -1,800 Descending Cleveland Center
08:25AM 41.5253 -81.6786 238° Southwest 216 249 4,100 -1,200 Descending Cleveland Center
08:25AM 41.4936 -81.7253 228° Southwest 224 258 3,300 -1,140 Descending Cleveland Center
08:26AM 41.4872 -81.7361 232° Southwest 201 231 3,000 -1,020 Descending Cleveland Center
08:26AM 41.4619 -81.7717 227° Southwest 200 230 2,300 -900 Descending Cleveland Center
08:27AM 41.4575 -81.7828 242° Southwest 137 158 2,100 -720 Descending Cleveland Center
08:28AM 41.4342 -81.8156 226° Southwest 121 139 1,400 -720 Descending Cleveland Center
08:30AM 41.4000 -81.8500 252° West  Level FlightAware Approximate
08:37AM 41.4094 -81.8547 252° West  Level Estimated